sensor_id;sensor_type;location;lat;lon;timestamp;P1;durP1;ratioP1;P2;durP2;ratioP2
6145;SDS011;3104;50.348;7.620;2023-09-30T00:00:06;8.90;;;8.00;;
6145;SDS011;3104;50.348;7.620;2023-09-30T00:02:35;9.00;;;7.77;;
6145;SDS011;3104;50.348;7.620;2023-09-30T00:05:00;10.33;;;8.13;;
6145;SDS011;3104;50.348;7.620;2023-09-30T00:07:26;9.53;;;8.53;;
6145;SDS011;3104;50.348;7.620;2023-09-30T00:09:51;12.97;;;7.50;;
6145;SDS011;3104;50.348;7.620;2023-09-30T00:12:17;8.33;;;7.37;;
6145;SDS011;3104;50.348;7.620;2023-09-30T00:14:43;13.80;;;7.87;;
6145;SDS011;3104;50.348;7.620;2023-09-30T00:17:08;8.07;;;7.10;;
6145;SDS011;3104;50.348;7.620;2023-09-30T00:19:34;10.23;;;8.40;;
6145;SDS011;3104;50.348;7.620;2023-09-30T00:21:59;10.30;;;8.73;;
6145;SDS011;3104;50.348;7.620;2023-09-30T00:24:25;14.30;;;9.73;;
6145;SDS011;3104;50.348;7.620;2023-09-30T00:26:51;9.80;;;8.80;;
6145;SDS011;3104;50.348;7.620;2023-09-30T00:29:16;10.63;;;8.87;;
6145;SDS011;3104;50.348;7.620;2023-09-30T00:31:43;9.07;;;7.80;;
6145;SDS011;3104;50.348;7.620;2023-09-30T00:34:09;13.17;;;8.30;;
6145;SDS011;3104;50.348;7.620;2023-09-30T00:36:34;11.20;;;7.97;;
6145;SDS011;3104;50.348;7.620;2023-09-30T00:39:00;10.93;;;8.33;;
6145;SDS011;3104;50.348;7.620;2023-09-30T00:41:26;15.10;;;9.07;;
6145;SDS011;3104;50.348;7.620;2023-09-30T00:43:51;15.13;;;9.33;;
6145;SDS011;3104;50.348;7.620;2023-09-30T00:48:52;10.90;;;9.30;;
6145;SDS011;3104;50.348;7.620;2023-09-30T00:51:19;9.73;;;8.73;;
6145;SDS011;3104;50.348;7.620;2023-09-30T00:53:45;12.73;;;9.47;;
6145;SDS011;3104;50.348;7.620;2023-09-30T00:56:11;11.53;;;7.67;;
6145;SDS011;3104;50.348;7.620;2023-09-30T00:58:37;14.87;;;10.50;;
6145;SDS011;3104;50.348;7.620;2023-09-30T01:01:03;13.47;;;8.43;;
6145;SDS011;3104;50.348;7.620;2023-09-30T01:03:30;11.80;;;9.30;;
6145;SDS011;3104;50.348;7.620;2023-09-30T01:05:55;14.10;;;9.00;;
6145;SDS011;3104;50.348;7.620;2023-09-30T01:08:21;13.47;;;8.13;;
6145;SDS011;3104;50.348;7.620;2023-09-30T01:10:47;10.73;;;8.33;;
6145;SDS011;3104;50.348;7.620;2023-09-30T01:13:13;18.67;;;10.20;;
6145;SDS011;3104;50.348;7.620;2023-09-30T01:15:39;15.93;;;9.43;;
6145;SDS011;3104;50.348;7.620;2023-09-30T01:18:04;11.97;;;8.90;;
6145;SDS011;3104;50.348;7.620;2023-09-30T01:20:31;11.80;;;9.10;;
6145;SDS011;3104;50.348;7.620;2023-09-30T01:22:57;12.67;;;9.97;;
6145;SDS011;3104;50.348;7.620;2023-09-30T01:25:23;13.87;;;9.13;;
6145;SDS011;3104;50.348;7.620;2023-09-30T01:27:49;10.80;;;8.40;;
6145;SDS011;3104;50.348;7.620;2023-09-30T01:30:19;8.00;;;7.20;;
6145;SDS011;3104;50.348;7.620;2023-09-30T01:32:47;9.73;;;7.53;;
6145;SDS011;3104;50.348;7.620;2023-09-30T01:35:13;12.83;;;8.20;;
6145;SDS011;3104;50.348;7.620;2023-09-30T01:37:39;12.37;;;8.73;;
6145;SDS011;3104;50.348;7.620;2023-09-30T01:40:04;9.03;;;7.97;;
6145;SDS011;3104;50.348;7.620;2023-09-30T01:42:33;12.87;;;9.40;;
6145;SDS011;3104;50.348;7.620;2023-09-30T01:44:59;13.90;;;9.70;;
6145;SDS011;3104;50.348;7.620;2023-09-30T01:47:24;12.43;;;9.20;;
6145;SDS011;3104;50.348;7.620;2023-09-30T01:49:50;18.37;;;11.93;;
6145;SDS011;3104;50.348;7.620;2023-09-30T01:52:15;13.90;;;10.03;;
6145;SDS011;3104;50.348;7.620;2023-09-30T01:54:41;13.93;;;9.97;;
6145;SDS011;3104;50.348;7.620;2023-09-30T01:57:06;13.60;;;10.00;;
6145;SDS011;3104;50.348;7.620;2023-09-30T01:59:32;13.80;;;11.00;;
6145;SDS011;3104;50.348;7.620;2023-09-30T02:01:57;15.87;;;12.63;;
6145;SDS011;3104;50.348;7.620;2023-09-30T02:04:23;14.87;;;12.50;;
6145;SDS011;3104;50.348;7.620;2023-09-30T02:06:48;17.50;;;14.33;;
6145;SDS011;3104;50.348;7.620;2023-09-30T02:09:14;15.60;;;11.53;;
6145;SDS011;3104;50.348;7.620;2023-09-30T02:11:39;14.07;;;11.87;;
6145;SDS011;3104;50.348;7.620;2023-09-30T02:14:06;16.63;;;12.33;;
6145;SDS011;3104;50.348;7.620;2023-09-30T02:16:32;15.43;;;11.30;;
6145;SDS011;3104;50.348;7.620;2023-09-30T02:18:58;14.83;;;10.40;;
6145;SDS011;3104;50.348;7.620;2023-09-30T02:21:23;14.90;;;11.20;;
6145;SDS011;3104;50.348;7.620;2023-09-30T02:23:49;15.27;;;11.47;;
6145;SDS011;3104;50.348;7.620;2023-09-30T02:26:19;17.00;;;12.87;;
6145;SDS011;3104;50.348;7.620;2023-09-30T02:28:46;14.03;;;11.47;;
6145;SDS011;3104;50.348;7.620;2023-09-30T02:31:12;14.47;;;11.40;;
6145;SDS011;3104;50.348;7.620;2023-09-30T02:33:37;14.30;;;12.30;;
6145;SDS011;3104;50.348;7.620;2023-09-30T02:36:06;13.53;;;9.77;;
6145;SDS011;3104;50.348;7.620;2023-09-30T02:38:33;16.70;;;11.80;;
6145;SDS011;3104;50.348;7.620;2023-09-30T02:41:01;13.57;;;9.87;;
6145;SDS011;3104;50.348;7.620;2023-09-30T02:43:27;10.23;;;8.90;;
6145;SDS011;3104;50.348;7.620;2023-09-30T02:45:53;13.07;;;10.27;;
6145;SDS011;3104;50.348;7.620;2023-09-30T02:48:18;16.60;;;10.70;;
6145;SDS011;3104;50.348;7.620;2023-09-30T02:50:44;16.27;;;11.60;;
6145;SDS011;3104;50.348;7.620;2023-09-30T02:53:10;18.07;;;12.53;;
6145;SDS011;3104;50.348;7.620;2023-09-30T02:55:37;13.50;;;12.00;;
6145;SDS011;3104;50.348;7.620;2023-09-30T02:58:03;16.23;;;12.60;;
6145;SDS011;3104;50.348;7.620;2023-09-30T03:00:29;19.53;;;12.13;;
6145;SDS011;3104;50.348;7.620;2023-09-30T03:02:58;17.10;;;12.23;;
6145;SDS011;3104;50.348;7.620;2023-09-30T03:05:25;19.30;;;12.73;;
6145;SDS011;3104;50.348;7.620;2023-09-30T03:07:53;14.60;;;11.53;;
6145;SDS011;3104;50.348;7.620;2023-09-30T03:10:19;12.00;;;10.83;;
6145;SDS011;3104;50.348;7.620;2023-09-30T03:12:48;13.13;;;10.50;;
6145;SDS011;3104;50.348;7.620;2023-09-30T03:15:15;14.03;;;12.63;;
6145;SDS011;3104;50.348;7.620;2023-09-30T03:17:41;19.10;;;10.57;;
6145;SDS011;3104;50.348;7.620;2023-09-30T03:20:07;13.33;;;10.90;;
6145;SDS011;3104;50.348;7.620;2023-09-30T03:22:37;15.43;;;10.90;;
6145;SDS011;3104;50.348;7.620;2023-09-30T03:25:12;15.60;;;11.20;;
6145;SDS011;3104;50.348;7.620;2023-09-30T03:27:41;13.63;;;12.10;;
6145;SDS011;3104;50.348;7.620;2023-09-30T03:30:07;19.83;;;12.83;;
6145;SDS011;3104;50.348;7.620;2023-09-30T03:32:33;16.63;;;12.63;;
6145;SDS011;3104;50.348;7.620;2023-09-30T03:35:03;16.30;;;14.40;;
6145;SDS011;3104;50.348;7.620;2023-09-30T03:37:35;22.37;;;13.97;;
6145;SDS011;3104;50.348;7.620;2023-09-30T03:40:02;17.87;;;13.83;;
6145;SDS011;3104;50.348;7.620;2023-09-30T03:42:36;15.73;;;12.87;;
6145;SDS011;3104;50.348;7.620;2023-09-30T03:45:04;21.03;;;14.30;;
6145;SDS011;3104;50.348;7.620;2023-09-30T03:47:32;19.53;;;13.07;;
6145;SDS011;3104;50.348;7.620;2023-09-30T03:49:59;15.63;;;13.93;;
6145;SDS011;3104;50.348;7.620;2023-09-30T03:52:25;15.43;;;12.77;;
6145;SDS011;3104;50.348;7.620;2023-09-30T03:54:51;18.40;;;14.60;;
6145;SDS011;3104;50.348;7.620;2023-09-30T03:57:18;19.20;;;13.60;;
6145;SDS011;3104;50.348;7.620;2023-09-30T03:59:44;22.30;;;13.37;;
6145;SDS011;3104;50.348;7.620;2023-09-30T04:02:11;18.13;;;14.23;;
6145;SDS011;3104;50.348;7.620;2023-09-30T04:04:37;15.40;;;12.93;;
6145;SDS011;3104;50.348;7.620;2023-09-30T04:07:03;18.30;;;14.20;;
6145;SDS011;3104;50.348;7.620;2023-09-30T04:09:35;17.00;;;12.67;;
6145;SDS011;3104;50.348;7.620;2023-09-30T04:12:01;14.00;;;12.53;;
6145;SDS011;3104;50.348;7.620;2023-09-30T04:14:26;17.83;;;13.47;;
6145;SDS011;3104;50.348;7.620;2023-09-30T04:16:52;19.90;;;14.10;;
6145;SDS011;3104;50.348;7.620;2023-09-30T04:19:19;17.90;;;12.53;;
6145;SDS011;3104;50.348;7.620;2023-09-30T04:21:45;21.47;;;16.60;;
6145;SDS011;3104;50.348;7.620;2023-09-30T04:24:11;19.73;;;14.40;;
6145;SDS011;3104;50.348;7.620;2023-09-30T04:26:37;21.00;;;14.47;;
6145;SDS011;3104;50.348;7.620;2023-09-30T04:29:03;17.63;;;14.80;;
6145;SDS011;3104;50.348;7.620;2023-09-30T04:31:29;16.40;;;13.70;;
6145;SDS011;3104;50.348;7.620;2023-09-30T04:33:55;15.20;;;12.80;;
6145;SDS011;3104;50.348;7.620;2023-09-30T04:36:23;16.80;;;14.17;;
6145;SDS011;3104;50.348;7.620;2023-09-30T04:38:48;18.73;;;13.80;;
6145;SDS011;3104;50.348;7.620;2023-09-30T04:41:14;14.80;;;11.90;;
6145;SDS011;3104;50.348;7.620;2023-09-30T04:43:41;19.33;;;13.57;;
6145;SDS011;3104;50.348;7.620;2023-09-30T04:46:08;19.17;;;13.20;;
6145;SDS011;3104;50.348;7.620;2023-09-30T04:48:34;13.63;;;12.10;;
6145;SDS011;3104;50.348;7.620;2023-09-30T04:51:00;19.23;;;11.80;;
6145;SDS011;3104;50.348;7.620;2023-09-30T04:53:29;15.73;;;11.13;;
6145;SDS011;3104;50.348;7.620;2023-09-30T04:55:55;16.37;;;12.57;;
6145;SDS011;3104;50.348;7.620;2023-09-30T04:58:21;13.80;;;12.37;;
6145;SDS011;3104;50.348;7.620;2023-09-30T05:00:48;17.93;;;13.20;;
6145;SDS011;3104;50.348;7.620;2023-09-30T05:03:14;17.40;;;12.70;;
6145;SDS011;3104;50.348;7.620;2023-09-30T05:05:40;16.73;;;14.00;;
6145;SDS011;3104;50.348;7.620;2023-09-30T05:08:06;20.83;;;14.70;;
6145;SDS011;3104;50.348;7.620;2023-09-30T05:10:32;18.97;;;12.10;;
6145;SDS011;3104;50.348;7.620;2023-09-30T05:12:58;17.20;;;11.60;;
6145;SDS011;3104;50.348;7.620;2023-09-30T05:15:24;18.23;;;12.40;;
6145;SDS011;3104;50.348;7.620;2023-09-30T05:17:50;17.50;;;11.43;;
6145;SDS011;3104;50.348;7.620;2023-09-30T05:20:16;18.80;;;12.77;;
6145;SDS011;3104;50.348;7.620;2023-09-30T05:22:42;14.00;;;12.37;;
6145;SDS011;3104;50.348;7.620;2023-09-30T05:25:12;16.97;;;11.23;;
6145;SDS011;3104;50.348;7.620;2023-09-30T05:27:40;15.77;;;11.80;;
6145;SDS011;3104;50.348;7.620;2023-09-30T05:30:06;21.67;;;12.50;;
6145;SDS011;3104;50.348;7.620;2023-09-30T05:32:33;17.73;;;10.93;;
6145;SDS011;3104;50.348;7.620;2023-09-30T05:34:59;16.57;;;11.03;;
6145;SDS011;3104;50.348;7.620;2023-09-30T05:37:28;20.00;;;11.20;;
6145;SDS011;3104;50.348;7.620;2023-09-30T05:39:53;16.30;;;9.67;;
6145;SDS011;3104;50.348;7.620;2023-09-30T05:42:19;18.33;;;11.40;;
6145;SDS011;3104;50.348;7.620;2023-09-30T05:44:44;14.33;;;11.53;;
6145;SDS011;3104;50.348;7.620;2023-09-30T05:47:11;20.07;;;11.30;;
6145;SDS011;3104;50.348;7.620;2023-09-30T05:49:37;14.67;;;11.07;;
6145;SDS011;3104;50.348;7.620;2023-09-30T05:52:03;13.67;;;9.50;;
6145;SDS011;3104;50.348;7.620;2023-09-30T05:54:30;14.20;;;9.47;;
6145;SDS011;3104;50.348;7.620;2023-09-30T05:56:55;11.03;;;9.70;;
6145;SDS011;3104;50.348;7.620;2023-09-30T05:59:21;14.30;;;9.97;;
6145;SDS011;3104;50.348;7.620;2023-09-30T06:01:47;12.43;;;9.23;;
6145;SDS011;3104;50.348;7.620;2023-09-30T06:04:12;10.63;;;8.37;;
6145;SDS011;3104;50.348;7.620;2023-09-30T06:06:38;10.73;;;8.27;;
6145;SDS011;3104;50.348;7.620;2023-09-30T06:09:04;11.37;;;8.20;;
6145;SDS011;3104;50.348;7.620;2023-09-30T06:11:33;12.93;;;8.40;;
6145;SDS011;3104;50.348;7.620;2023-09-30T06:13:58;11.40;;;8.50;;
6145;SDS011;3104;50.348;7.620;2023-09-30T06:16:25;11.60;;;8.80;;
6145;SDS011;3104;50.348;7.620;2023-09-30T06:18:55;12.23;;;7.30;;
6145;SDS011;3104;50.348;7.620;2023-09-30T06:21:21;10.77;;;8.10;;
6145;SDS011;3104;50.348;7.620;2023-09-30T06:23:47;13.03;;;9.50;;
6145;SDS011;3104;50.348;7.620;2023-09-30T06:26:13;10.60;;;7.80;;
6145;SDS011;3104;50.348;7.620;2023-09-30T06:28:41;12.97;;;9.10;;
6145;SDS011;3104;50.348;7.620;2023-09-30T06:31:07;16.33;;;10.70;;
6145;SDS011;3104;50.348;7.620;2023-09-30T06:33:35;15.67;;;10.37;;
6145;SDS011;3104;50.348;7.620;2023-09-30T06:36:01;12.63;;;8.93;;
6145;SDS011;3104;50.348;7.620;2023-09-30T06:38:27;13.33;;;8.80;;
6145;SDS011;3104;50.348;7.620;2023-09-30T06:40:53;15.37;;;10.70;;
6145;SDS011;3104;50.348;7.620;2023-09-30T06:43:19;16.23;;;10.07;;
6145;SDS011;3104;50.348;7.620;2023-09-30T06:45:44;13.37;;;9.40;;
6145;SDS011;3104;50.348;7.620;2023-09-30T06:48:11;16.50;;;10.53;;
6145;SDS011;3104;50.348;7.620;2023-09-30T06:50:47;16.20;;;10.97;;
6145;SDS011;3104;50.348;7.620;2023-09-30T06:53:17;17.30;;;10.07;;
6145;SDS011;3104;50.348;7.620;2023-09-30T06:55:44;15.60;;;9.50;;
6145;SDS011;3104;50.348;7.620;2023-09-30T06:58:10;16.03;;;10.13;;
6145;SDS011;3104;50.348;7.620;2023-09-30T07:00:42;14.97;;;11.07;;
6145;SDS011;3104;50.348;7.620;2023-09-30T07:03:08;20.97;;;10.20;;
6145;SDS011;3104;50.348;7.620;2023-09-30T07:05:35;18.00;;;13.40;;
6145;SDS011;3104;50.348;7.620;2023-09-30T07:08:01;14.27;;;11.73;;
6145;SDS011;3104;50.348;7.620;2023-09-30T07:10:27;21.80;;;13.97;;
6145;SDS011;3104;50.348;7.620;2023-09-30T07:12:54;17.87;;;13.50;;
6145;SDS011;3104;50.348;7.620;2023-09-30T07:15:20;23.40;;;13.13;;
6145;SDS011;3104;50.348;7.620;2023-09-30T07:17:46;22.57;;;12.57;;
6145;SDS011;3104;50.348;7.620;2023-09-30T07:20:12;24.47;;;15.27;;
6145;SDS011;3104;50.348;7.620;2023-09-30T07:22:39;17.60;;;12.80;;
6145;SDS011;3104;50.348;7.620;2023-09-30T07:25:05;18.23;;;14.50;;
6145;SDS011;3104;50.348;7.620;2023-09-30T07:27:31;18.37;;;13.47;;
6145;SDS011;3104;50.348;7.620;2023-09-30T07:29:56;20.60;;;13.90;;
6145;SDS011;3104;50.348;7.620;2023-09-30T07:32:22;14.90;;;12.03;;
6145;SDS011;3104;50.348;7.620;2023-09-30T07:34:48;15.10;;;12.30;;
6145;SDS011;3104;50.348;7.620;2023-09-30T07:37:14;16.90;;;11.10;;
6145;SDS011;3104;50.348;7.620;2023-09-30T07:39:42;14.70;;;12.37;;
6145;SDS011;3104;50.348;7.620;2023-09-30T07:42:08;15.13;;;12.50;;
6145;SDS011;3104;50.348;7.620;2023-09-30T07:44:34;14.73;;;11.30;;
6145;SDS011;3104;50.348;7.620;2023-09-30T07:47:02;14.53;;;11.03;;
6145;SDS011;3104;50.348;7.620;2023-09-30T07:49:28;16.37;;;11.10;;
6145;SDS011;3104;50.348;7.620;2023-09-30T07:51:54;13.67;;;11.47;;
6145;SDS011;3104;50.348;7.620;2023-09-30T07:54:20;18.83;;;11.50;;
6145;SDS011;3104;50.348;7.620;2023-09-30T07:56:46;16.37;;;12.73;;
6145;SDS011;3104;50.348;7.620;2023-09-30T07:59:11;15.90;;;12.47;;
6145;SDS011;3104;50.348;7.620;2023-09-30T08:01:38;13.77;;;11.73;;
6145;SDS011;3104;50.348;7.620;2023-09-30T08:04:04;16.00;;;11.93;;
6145;SDS011;3104;50.348;7.620;2023-09-30T08:06:29;20.27;;;13.27;;
6145;SDS011;3104;50.348;7.620;2023-09-30T08:08:56;18.30;;;12.37;;
6145;SDS011;3104;50.348;7.620;2023-09-30T08:11:21;17.67;;;13.07;;
6145;SDS011;3104;50.348;7.620;2023-09-30T08:13:47;20.87;;;13.53;;
6145;SDS011;3104;50.348;7.620;2023-09-30T08:16:13;16.10;;;12.93;;
6145;SDS011;3104;50.348;7.620;2023-09-30T08:18:38;19.80;;;14.40;;
6145;SDS011;3104;50.348;7.620;2023-09-30T08:21:04;16.67;;;13.50;;
6145;SDS011;3104;50.348;7.620;2023-09-30T08:23:33;18.30;;;12.90;;
6145;SDS011;3104;50.348;7.620;2023-09-30T08:25:59;19.30;;;12.47;;
6145;SDS011;3104;50.348;7.620;2023-09-30T08:28:25;20.60;;;13.10;;
6145;SDS011;3104;50.348;7.620;2023-09-30T08:30:50;20.20;;;14.50;;
6145;SDS011;3104;50.348;7.620;2023-09-30T08:33:19;15.47;;;13.00;;
6145;SDS011;3104;50.348;7.620;2023-09-30T08:35:45;15.20;;;12.00;;
6145;SDS011;3104;50.348;7.620;2023-09-30T08:38:10;19.87;;;14.07;;
6145;SDS011;3104;50.348;7.620;2023-09-30T08:40:36;17.53;;;12.83;;
6145;SDS011;3104;50.348;7.620;2023-09-30T08:43:03;17.00;;;12.80;;
6145;SDS011;3104;50.348;7.620;2023-09-30T08:45:29;16.70;;;12.00;;
6145;SDS011;3104;50.348;7.620;2023-09-30T08:48:02;15.03;;;10.90;;
6145;SDS011;3104;50.348;7.620;2023-09-30T08:50:30;15.43;;;11.20;;
6145;SDS011;3104;50.348;7.620;2023-09-30T08:52:57;13.50;;;10.33;;
6145;SDS011;3104;50.348;7.620;2023-09-30T08:55:24;21.30;;;11.67;;
6145;SDS011;3104;50.348;7.620;2023-09-30T08:57:52;15.20;;;11.10;;
6145;SDS011;3104;50.348;7.620;2023-09-30T09:00:19;16.77;;;10.23;;
6145;SDS011;3104;50.348;7.620;2023-09-30T09:02:45;15.13;;;11.27;;
6145;SDS011;3104;50.348;7.620;2023-09-30T09:05:11;13.10;;;9.80;;
6145;SDS011;3104;50.348;7.620;2023-09-30T09:07:37;13.13;;;10.17;;
6145;SDS011;3104;50.348;7.620;2023-09-30T09:10:04;17.07;;;10.30;;
6145;SDS011;3104;50.348;7.620;2023-09-30T09:12:30;10.07;;;9.07;;
6145;SDS011;3104;50.348;7.620;2023-09-30T09:14:58;14.53;;;9.10;;
6145;SDS011;3104;50.348;7.620;2023-09-30T09:17:24;11.80;;;9.17;;
6145;SDS011;3104;50.348;7.620;2023-09-30T09:20:05;12.23;;;9.00;;
6145;SDS011;3104;50.348;7.620;2023-09-30T09:22:37;10.77;;;9.13;;
6145;SDS011;3104;50.348;7.620;2023-09-30T09:25:07;11.03;;;7.70;;
6145;SDS011;3104;50.348;7.620;2023-09-30T09:27:34;11.47;;;8.13;;
6145;SDS011;3104;50.348;7.620;2023-09-30T09:30:19;11.83;;;9.23;;
6145;SDS011;3104;50.348;7.620;2023-09-30T09:35:29;9.03;;;7.70;;
6145;SDS011;3104;50.348;7.620;2023-09-30T09:38:01;9.60;;;8.30;;
6145;SDS011;3104;50.348;7.620;2023-09-30T09:40:30;10.13;;;8.77;;
6145;SDS011;3104;50.348;7.620;2023-09-30T09:42:57;9.67;;;7.60;;
6145;SDS011;3104;50.348;7.620;2023-09-30T09:45:26;7.27;;;6.50;;
6145;SDS011;3104;50.348;7.620;2023-09-30T09:47:53;12.47;;;7.00;;
6145;SDS011;3104;50.348;7.620;2023-09-30T09:50:19;13.00;;;7.87;;
6145;SDS011;3104;50.348;7.620;2023-09-30T09:52:50;11.63;;;7.90;;
6145;SDS011;3104;50.348;7.620;2023-09-30T09:55:26;9.20;;;7.60;;
6145;SDS011;3104;50.348;7.620;2023-09-30T09:57:52;10.00;;;7.07;;
6145;SDS011;3104;50.348;7.620;2023-09-30T10:00:20;11.03;;;6.93;;
6145;SDS011;3104;50.348;7.620;2023-09-30T10:02:48;12.83;;;6.97;;
6145;SDS011;3104;50.348;7.620;2023-09-30T10:05:15;7.37;;;6.63;;
6145;SDS011;3104;50.348;7.620;2023-09-30T10:10:30;9.20;;;6.93;;
6145;SDS011;3104;50.348;7.620;2023-09-30T10:13:00;8.23;;;7.20;;
6145;SDS011;3104;50.348;7.620;2023-09-30T10:17:59;13.77;;;7.47;;
6145;SDS011;3104;50.348;7.620;2023-09-30T10:20:29;11.13;;;9.13;;
6145;SDS011;3104;50.348;7.620;2023-09-30T10:25:43;14.40;;;9.60;;
6145;SDS011;3104;50.348;7.620;2023-09-30T10:31:13;8.07;;;7.20;;
6145;SDS011;3104;50.348;7.620;2023-09-30T10:36:31;8.70;;;7.80;;
6145;SDS011;3104;50.348;7.620;2023-09-30T10:38:58;10.10;;;7.87;;
6145;SDS011;3104;50.348;7.620;2023-09-30T10:47:34;11.83;;;7.27;;
6145;SDS011;3104;50.348;7.620;2023-09-30T10:49:46;10.40;;;7.33;;
6145;SDS011;3104;50.348;7.620;2023-09-30T10:52:12;11.70;;;7.20;;
6145;SDS011;3104;50.348;7.620;2023-09-30T10:54:48;10.27;;;6.20;;
6145;SDS011;3104;50.348;7.620;2023-09-30T10:57:16;9.27;;;6.20;;
6145;SDS011;3104;50.348;7.620;2023-09-30T11:00:11;6.37;;;5.77;;
6145;SDS011;3104;50.348;7.620;2023-09-30T11:02:49;8.67;;;7.00;;
6145;SDS011;3104;50.348;7.620;2023-09-30T11:05:16;8.53;;;6.70;;
6145;SDS011;3104;50.348;7.620;2023-09-30T11:07:43;9.47;;;7.40;;
6145;SDS011;3104;50.348;7.620;2023-09-30T11:10:15;10.23;;;6.60;;
6145;SDS011;3104;50.348;7.620;2023-09-30T11:12:53;7.00;;;6.17;;
6145;SDS011;3104;50.348;7.620;2023-09-30T11:15:19;7.83;;;7.13;;
6145;SDS011;3104;50.348;7.620;2023-09-30T11:17:45;6.93;;;5.33;;
6145;SDS011;3104;50.348;7.620;2023-09-30T11:20:10;8.57;;;5.77;;
6145;SDS011;3104;50.348;7.620;2023-09-30T11:22:36;6.83;;;6.17;;
6145;SDS011;3104;50.348;7.620;2023-09-30T11:25:02;5.70;;;5.20;;
6145;SDS011;3104;50.348;7.620;2023-09-30T11:27:28;8.60;;;5.43;;
6145;SDS011;3104;50.348;7.620;2023-09-30T11:29:56;6.17;;;5.57;;
6145;SDS011;3104;50.348;7.620;2023-09-30T11:32:27;5.47;;;4.83;;
6145;SDS011;3104;50.348;7.620;2023-09-30T11:34:53;8.93;;;5.20;;
6145;SDS011;3104;50.348;7.620;2023-09-30T11:37:19;7.80;;;6.80;;
6145;SDS011;3104;50.348;7.620;2023-09-30T11:39:46;6.60;;;5.87;;
6145;SDS011;3104;50.348;7.620;2023-09-30T11:42:16;7.03;;;6.27;;
6145;SDS011;3104;50.348;7.620;2023-09-30T11:44:46;6.07;;;5.47;;
6145;SDS011;3104;50.348;7.620;2023-09-30T11:47:13;7.40;;;6.50;;
6145;SDS011;3104;50.348;7.620;2023-09-30T11:49:40;6.33;;;5.40;;
6145;SDS011;3104;50.348;7.620;2023-09-30T11:52:12;7.90;;;6.50;;
6145;SDS011;3104;50.348;7.620;2023-09-30T11:54:43;7.00;;;6.37;;
6145;SDS011;3104;50.348;7.620;2023-09-30T11:57:10;7.10;;;5.80;;
6145;SDS011;3104;50.348;7.620;2023-09-30T11:59:40;9.20;;;6.53;;
6145;SDS011;3104;50.348;7.620;2023-09-30T12:02:06;8.07;;;5.90;;
6145;SDS011;3104;50.348;7.620;2023-09-30T12:04:34;5.50;;;5.00;;
6145;SDS011;3104;50.348;7.620;2023-09-30T12:06:59;7.10;;;5.00;;
6145;SDS011;3104;50.348;7.620;2023-09-30T12:09:25;6.80;;;5.77;;
6145;SDS011;3104;50.348;7.620;2023-09-30T12:11:52;5.60;;;5.10;;
6145;SDS011;3104;50.348;7.620;2023-09-30T12:14:19;6.00;;;5.40;;
6145;SDS011;3104;50.348;7.620;2023-09-30T12:16:48;6.30;;;4.70;;
6145;SDS011;3104;50.348;7.620;2023-09-30T12:19:14;6.63;;;5.83;;
6145;SDS011;3104;50.348;7.620;2023-09-30T12:21:41;6.70;;;5.13;;
6145;SDS011;3104;50.348;7.620;2023-09-30T12:24:07;8.03;;;6.00;;
6145;SDS011;3104;50.348;7.620;2023-09-30T12:26:34;5.47;;;5.07;;
6145;SDS011;3104;50.348;7.620;2023-09-30T12:29:01;5.80;;;5.13;;
6145;SDS011;3104;50.348;7.620;2023-09-30T12:31:26;6.13;;;5.57;;
6145;SDS011;3104;50.348;7.620;2023-09-30T12:33:52;5.27;;;4.47;;
6145;SDS011;3104;50.348;7.620;2023-09-30T12:36:19;7.90;;;5.97;;
6145;SDS011;3104;50.348;7.620;2023-09-30T12:38:44;8.13;;;5.00;;
6145;SDS011;3104;50.348;7.620;2023-09-30T12:41:10;6.27;;;4.53;;
6145;SDS011;3104;50.348;7.620;2023-09-30T12:43:36;6.90;;;5.23;;
6145;SDS011;3104;50.348;7.620;2023-09-30T12:46:03;6.27;;;5.50;;
6145;SDS011;3104;50.348;7.620;2023-09-30T12:48:29;5.40;;;5.00;;
6145;SDS011;3104;50.348;7.620;2023-09-30T12:50:55;6.17;;;4.80;;
6145;SDS011;3104;50.348;7.620;2023-09-30T12:53:20;5.03;;;4.63;;
6145;SDS011;3104;50.348;7.620;2023-09-30T12:55:46;7.80;;;4.60;;
6145;SDS011;3104;50.348;7.620;2023-09-30T12:58:12;6.93;;;5.43;;
6145;SDS011;3104;50.348;7.620;2023-09-30T13:00:37;9.13;;;5.20;;
6145;SDS011;3104;50.348;7.620;2023-09-30T13:03:03;5.53;;;4.70;;
6145;SDS011;3104;50.348;7.620;2023-09-30T13:05:29;5.10;;;4.60;;
6145;SDS011;3104;50.348;7.620;2023-09-30T13:07:55;7.90;;;4.50;;
6145;SDS011;3104;50.348;7.620;2023-09-30T13:10:21;5.50;;;4.30;;
6145;SDS011;3104;50.348;7.620;2023-09-30T13:12:47;5.43;;;4.93;;
6145;SDS011;3104;50.348;7.620;2023-09-30T13:15:18;6.90;;;5.23;;
6145;SDS011;3104;50.348;7.620;2023-09-30T13:17:44;5.10;;;4.70;;
6145;SDS011;3104;50.348;7.620;2023-09-30T13:20:09;6.63;;;4.60;;
6145;SDS011;3104;50.348;7.620;2023-09-30T13:22:37;4.33;;;3.93;;
6145;SDS011;3104;50.348;7.620;2023-09-30T13:25:03;5.13;;;4.60;;
6145;SDS011;3104;50.348;7.620;2023-09-30T13:27:37;5.80;;;4.83;;
6145;SDS011;3104;50.348;7.620;2023-09-30T13:30:04;5.90;;;4.90;;
6145;SDS011;3104;50.348;7.620;2023-09-30T13:32:32;7.20;;;4.33;;
6145;SDS011;3104;50.348;7.620;2023-09-30T13:35:00;6.10;;;3.70;;
6145;SDS011;3104;50.348;7.620;2023-09-30T13:37:27;6.77;;;5.03;;
6145;SDS011;3104;50.348;7.620;2023-09-30T13:39:58;5.67;;;4.77;;
6145;SDS011;3104;50.348;7.620;2023-09-30T13:42:27;4.50;;;3.97;;
6145;SDS011;3104;50.348;7.620;2023-09-30T13:44:53;5.13;;;4.23;;
6145;SDS011;3104;50.348;7.620;2023-09-30T13:47:19;6.60;;;5.13;;
6145;SDS011;3104;50.348;7.620;2023-09-30T13:49:44;6.03;;;4.33;;
6145;SDS011;3104;50.348;7.620;2023-09-30T13:52:11;4.90;;;4.40;;
6145;SDS011;3104;50.348;7.620;2023-09-30T13:54:36;5.93;;;5.30;;
6145;SDS011;3104;50.348;7.620;2023-09-30T13:57:02;5.40;;;4.20;;
6145;SDS011;3104;50.348;7.620;2023-09-30T13:59:28;4.73;;;4.23;;
6145;SDS011;3104;50.348;7.620;2023-09-30T14:01:53;5.47;;;4.93;;
6145;SDS011;3104;50.348;7.620;2023-09-30T14:04:19;7.60;;;4.43;;
6145;SDS011;3104;50.348;7.620;2023-09-30T14:06:45;4.33;;;3.90;;
6145;SDS011;3104;50.348;7.620;2023-09-30T14:09:11;7.60;;;5.30;;
6145;SDS011;3104;50.348;7.620;2023-09-30T14:11:40;4.10;;;3.80;;
6145;SDS011;3104;50.348;7.620;2023-09-30T14:14:06;7.40;;;5.23;;
6145;SDS011;3104;50.348;7.620;2023-09-30T14:16:34;4.57;;;4.17;;
6145;SDS011;3104;50.348;7.620;2023-09-30T14:19:00;4.53;;;4.23;;
6145;SDS011;3104;50.348;7.620;2023-09-30T14:21:26;4.80;;;4.40;;
6145;SDS011;3104;50.348;7.620;2023-09-30T14:23:53;6.07;;;4.47;;
6145;SDS011;3104;50.348;7.620;2023-09-30T14:26:19;5.70;;;4.80;;
6145;SDS011;3104;50.348;7.620;2023-09-30T14:28:44;10.70;;;4.83;;
6145;SDS011;3104;50.348;7.620;2023-09-30T14:31:10;7.43;;;5.20;;
6145;SDS011;3104;50.348;7.620;2023-09-30T14:33:36;4.50;;;4.00;;
6145;SDS011;3104;50.348;7.620;2023-09-30T14:36:02;5.27;;;4.73;;
6145;SDS011;3104;50.348;7.620;2023-09-30T14:38:30;32.67;;;8.23;;
6145;SDS011;3104;50.348;7.620;2023-09-30T14:40:56;24.50;;;9.73;;
6145;SDS011;3104;50.348;7.620;2023-09-30T14:43:22;5.77;;;4.80;;
6145;SDS011;3104;50.348;7.620;2023-09-30T14:45:47;5.00;;;4.60;;
6145;SDS011;3104;50.348;7.620;2023-09-30T14:48:13;6.43;;;4.80;;
6145;SDS011;3104;50.348;7.620;2023-09-30T14:50:49;5.10;;;4.20;;
6145;SDS011;3104;50.348;7.620;2023-09-30T14:53:15;4.67;;;4.27;;
6145;SDS011;3104;50.348;7.620;2023-09-30T14:55:41;6.00;;;4.53;;
6145;SDS011;3104;50.348;7.620;2023-09-30T14:58:07;5.37;;;4.87;;
6145;SDS011;3104;50.348;7.620;2023-09-30T15:00:33;5.97;;;4.00;;
6145;SDS011;3104;50.348;7.620;2023-09-30T15:02:58;4.93;;;4.20;;
6145;SDS011;3104;50.348;7.620;2023-09-30T15:05:25;4.40;;;3.73;;
6145;SDS011;3104;50.348;7.620;2023-09-30T15:07:50;4.63;;;4.23;;
6145;SDS011;3104;50.348;7.620;2023-09-30T15:10:16;5.73;;;4.17;;
6145;SDS011;3104;50.348;7.620;2023-09-30T15:12:41;4.53;;;4.03;;
6145;SDS011;3104;50.348;7.620;2023-09-30T15:15:07;4.37;;;3.97;;
6145;SDS011;3104;50.348;7.620;2023-09-30T15:17:33;5.83;;;3.90;;
6145;SDS011;3104;50.348;7.620;2023-09-30T15:19:59;4.80;;;4.00;;
6145;SDS011;3104;50.348;7.620;2023-09-30T15:22:25;13.57;;;5.90;;